createdAt,value
2019-02-05T00:02:15.853Z,1.22
2019-02-05T00:04:45.494Z,1.12
2019-02-05T00:07:14.707Z,1.19
2019-02-05T00:09:43.889Z,1.18
2019-02-05T00:12:13.198Z,1.11
2019-02-05T00:14:42.380Z,1.09
2019-02-05T00:17:11.621Z,1.12
2019-02-05T00:19:40.797Z,1.06
2019-02-05T00:22:10.134Z,0.99
2019-02-05T00:24:39.340Z,1.05
2019-02-05T00:27:08.590Z,1.04
2019-02-05T00:29:37.795Z,1.09
2019-02-05T00:32:07.068Z,1.15
2019-02-05T00:34:36.249Z,1.12
2019-02-05T00:37:05.972Z,1.24
2019-02-05T00:42:07.953Z,1.29
2019-02-05T00:44:37.200Z,1.25
2019-02-05T00:47:06.380Z,1.26
2019-02-05T00:49:35.652Z,1.35
2019-02-05T00:52:04.868Z,1.24
2019-02-05T00:54:35.835Z,1.19
2019-02-05T00:57:05.498Z,1.09
2019-02-05T00:59:34.746Z,1.10
2019-02-05T01:02:04.401Z,1.01
2019-02-05T01:04:34.013Z,0.97
2019-02-05T01:07:03.207Z,1.07
2019-02-05T01:09:32.916Z,1.05
2019-02-05T01:12:41.601Z,0.91
2019-02-05T01:15:14.206Z,0.88
2019-02-05T01:17:43.413Z,0.95
2019-02-05T01:20:53.319Z,0.98
2019-02-05T01:23:22.577Z,0.94
2019-02-05T01:25:51.898Z,0.99
2019-02-05T01:28:21.100Z,1.02
2019-02-05T01:30:50.338Z,1.06
2019-02-05T01:33:19.521Z,0.91
2019-02-05T01:35:50.525Z,0.95
2019-02-05T01:38:19.714Z,0.98
2019-02-05T01:40:48.970Z,0.72
2019-02-05T01:43:18.178Z,0.76
2019-02-05T01:45:47.426Z,0.86
2019-02-05T01:48:16.607Z,0.96
2019-02-05T01:50:47.615Z,0.99
2019-02-05T01:53:16.800Z,0.87
2019-02-05T01:58:40.749Z,0.95
2019-02-05T02:01:10.039Z,0.90
2019-02-05T02:03:39.299Z,0.65
2019-02-05T02:06:08.495Z,0.59
2019-02-05T02:08:37.770Z,0.62
2019-02-05T02:11:06.965Z,0.73
2019-02-05T02:13:36.259Z,0.87
2019-02-05T02:16:05.927Z,0.81
2019-02-05T02:18:35.177Z,0.92
2019-02-05T02:21:04.734Z,0.83
2019-02-05T02:23:34.114Z,0.87
2019-02-05T02:26:03.303Z,0.79
2019-02-05T02:28:32.503Z,0.61
2019-02-05T02:31:03.479Z,0.73
2019-02-05T02:33:32.673Z,0.79
2019-02-05T02:36:01.896Z,0.70
2019-02-05T02:38:31.100Z,0.60
2019-02-05T02:41:00.347Z,0.83
2019-02-05T02:43:29.528Z,0.79
2019-02-05T02:45:58.950Z,0.72
2019-02-05T02:48:28.139Z,0.62
2019-02-05T02:50:57.383Z,0.65
2019-02-05T02:53:26.857Z,0.72
2019-02-05T02:55:56.470Z,0.66
2019-02-05T02:58:25.676Z,0.73
2019-02-05T03:00:55.028Z,0.78
2019-02-05T03:03:24.215Z,0.86
2019-02-05T03:05:53.410Z,0.83
2019-02-05T03:08:22.656Z,0.69
2019-02-05T03:10:51.951Z,0.63
2019-02-05T03:13:21.253Z,0.60
2019-02-05T03:15:50.448Z,0.72
2019-02-05T03:18:19.703Z,0.92
2019-02-05T03:20:48.898Z,0.94
2019-02-05T03:23:18.139Z,1.04
2019-02-05T03:25:47.331Z,1.08
2019-02-05T03:28:16.960Z,1.11
2019-02-05T03:30:46.151Z,1.19
2019-02-05T03:33:15.423Z,1.29
2019-02-05T03:35:44.593Z,1.17
2019-02-05T03:38:13.800Z,1.26
2019-02-05T03:41:03.121Z,1.33
2019-02-05T03:50:09.657Z,1.23
2019-02-05T03:53:21.715Z,1.30
2019-02-05T03:56:29.228Z,1.37
2019-02-05T03:59:50.726Z,1.31
2019-02-05T04:02:52.711Z,1.18
2019-02-05T04:06:00.041Z,1.05
2019-02-05T04:12:39.680Z,0.71
2019-02-05T04:18:51.295Z,0.54
2019-02-05T04:22:07.860Z,0.60
2019-02-05T04:25:15.159Z,0.68
2019-02-05T04:28:22.786Z,0.69
2019-02-05T04:31:30.036Z,0.71
2019-02-05T04:34:23.305Z,0.75
2019-02-05T04:37:30.560Z,0.66
2019-02-05T04:40:37.873Z,0.44
2019-02-05T04:43:21.046Z,0.39
2019-02-05T04:49:50.876Z,0.33
2019-02-05T04:52:58.874Z,0.35
2019-02-05T04:56:06.141Z,0.45
2019-02-05T04:59:13.939Z,0.39
2019-02-05T05:02:21.189Z,0.44
2019-02-05T05:08:45.884Z,0.40
2019-02-05T05:11:15.246Z,0.18
2019-02-05T05:13:44.538Z,0.19
2019-02-05T05:16:13.742Z,0.18
2019-02-05T05:18:42.993Z,0.15
2019-02-05T05:24:20.781Z,0.22
2019-02-05T05:27:29.370Z,0.12
2019-02-05T05:29:58.800Z,0.09
2019-02-05T05:32:28.360Z,0.06
2019-02-05T05:34:57.842Z,0.13
2019-02-05T05:37:27.089Z,0.11
2019-02-05T05:39:56.277Z,0.10
2019-02-05T05:42:27.243Z,0.10
2019-02-05T05:44:56.430Z,0.04
2019-02-05T05:47:25.978Z,0.04
2019-02-05T05:49:55.173Z,0.06
2019-02-05T05:52:24.405Z,0.16
2019-02-05T05:54:53.887Z,0.24
2019-02-05T05:57:23.129Z,0.32
2019-02-05T05:59:52.320Z,0.47
2019-02-05T06:02:21.985Z,0.45
2019-02-05T06:04:51.172Z,0.30
2019-02-05T06:07:20.413Z,0.27
2019-02-05T06:09:49.602Z,0.28
2019-02-05T06:12:18.887Z,0.41
2019-02-05T06:14:50.225Z,0.27
2019-02-05T06:17:19.470Z,0.23
2019-02-05T06:19:48.715Z,0.15
2019-02-05T06:22:17.948Z,0.13
2019-02-05T06:24:47.127Z,0.09
2019-02-05T06:27:16.369Z,0.20
2019-02-05T06:29:47.281Z,0.23
2019-02-05T06:32:16.529Z,0.21
2019-02-05T06:34:45.718Z,0.14
2019-02-05T06:37:15.239Z,0.09
2019-02-05T06:39:44.416Z,0.14
2019-02-05T06:42:13.670Z,0.16
2019-02-05T06:44:42.864Z,0.16
2019-02-05T06:47:12.052Z,0.12
2019-02-05T06:49:41.677Z,0.18
2019-02-05T06:52:10.945Z,0.14
2019-02-05T06:54:40.168Z,0.21
2019-02-05T06:57:09.365Z,0.34
2019-02-05T06:59:38.599Z,0.34
2019-02-05T07:02:48.894Z,0.41
2019-02-05T07:05:18.248Z,0.45
2019-02-05T07:07:47.539Z,0.53
2019-02-05T07:10:18.992Z,0.51
2019-02-05T07:12:48.227Z,0.51
2019-02-05T07:15:17.457Z,0.48
2019-02-05T07:17:49.925Z,0.53
2019-02-05T07:20:18.228Z,0.62
2019-02-05T07:22:47.445Z,0.55
2019-02-05T07:25:18.623Z,0.57
2019-02-05T07:27:48.151Z,0.46
2019-02-05T07:30:20.387Z,0.30
2019-02-05T07:32:49.672Z,0.33
2019-02-05T07:35:18.909Z,0.34
2019-02-05T07:38:27.493Z,0.34
2019-02-05T07:40:56.799Z,0.30
2019-02-05T07:43:26.003Z,0.42
2019-02-05T07:45:55.244Z,0.52
2019-02-05T07:48:24.815Z,0.79
2019-02-05T07:50:54.053Z,0.87
2019-02-05T07:53:23.243Z,1.03
2019-02-05T07:55:52.849Z,1.11
2019-02-05T07:58:22.043Z,1.09
2019-02-05T08:00:51.285Z,1.05
2019-02-05T08:03:20.471Z,1.06
2019-02-05T08:05:51.449Z,1.12
2019-02-05T08:08:20.635Z,1.16
2019-02-05T08:10:49.982Z,1.33
2019-02-05T08:13:19.228Z,1.42
2019-02-05T08:15:48.456Z,1.52
2019-02-05T08:18:17.641Z,1.61
2019-02-05T08:20:46.885Z,1.64
2019-02-05T08:23:16.069Z,1.57
2019-02-05T08:25:47.420Z,1.53
2019-02-05T08:28:16.599Z,1.57
2019-02-05T08:30:47.606Z,1.64
2019-02-05T08:33:16.790Z,1.68
2019-02-05T08:35:46.031Z,1.72
2019-02-05T08:38:15.238Z,1.79
2019-02-05T08:40:46.598Z,1.88
2019-02-05T08:43:16.106Z,1.92
2019-02-05T08:45:55.988Z,1.94
2019-02-05T08:48:16.702Z,2.00
2019-02-05T08:50:45.956Z,2.03
2019-02-05T08:53:15.182Z,2.06
2019-02-05T08:55:44.371Z,2.20
2019-02-05T08:58:13.617Z,2.36
2019-02-05T09:01:22.449Z,2.44
2019-02-05T09:03:51.651Z,2.43
2019-02-05T09:06:20.892Z,2.39
2019-02-05T09:08:50.177Z,2.40
2019-02-05T09:11:19.342Z,2.27
2019-02-05T09:13:48.970Z,2.40
2019-02-05T09:16:18.501Z,2.62
2019-02-05T09:18:47.744Z,2.67
2019-02-05T09:21:18.664Z,2.72
2019-02-05T09:23:48.014Z,2.73
2019-02-05T09:26:17.197Z,2.67
2019-02-05T09:28:46.437Z,2.22
2019-02-05T09:31:15.669Z,2.30
2019-02-05T09:33:45.625Z,2.70
2019-02-05T09:36:14.804Z,2.86
2019-02-05T09:38:44.057Z,2.97
2019-02-05T09:41:13.256Z,2.78
2019-02-05T09:43:42.439Z,2.75
2019-02-05T09:46:12.016Z,2.66
2019-02-05T09:48:41.205Z,2.78
2019-02-05T09:51:10.833Z,3.10
2019-02-05T09:53:41.743Z,3.30
2019-02-05T09:56:10.986Z,3.64
2019-02-05T09:58:40.171Z,3.81
2019-02-05T10:01:09.869Z,3.80
2019-02-05T10:03:39.057Z,3.73
2019-02-05T10:06:08.302Z,3.57
2019-02-05T10:08:37.482Z,3.37
2019-02-05T10:11:07.188Z,3.21
2019-02-05T10:13:36.540Z,2.93
2019-02-05T10:19:01.506Z,2.99
2019-02-05T10:21:32.419Z,3.12
2019-02-05T10:24:01.658Z,3.09
2019-02-05T10:26:30.840Z,3.16
2019-02-05T10:29:00.097Z,3.46
2019-02-05T10:31:29.309Z,3.80
2019-02-05T10:33:58.567Z,4.00
2019-02-05T10:36:29.480Z,4.12
2019-02-05T10:38:58.717Z,4.31
2019-02-05T10:41:28.257Z,4.24
2019-02-05T10:43:57.510Z,4.23
2019-02-05T10:46:26.702Z,4.17
2019-02-05T10:48:55.919Z,4.28
2019-02-05T10:51:25.172Z,4.42
2019-02-05T10:53:54.859Z,4.28
2019-02-05T10:56:24.114Z,4.34
2019-02-05T10:58:53.307Z,4.29
2019-02-05T11:01:22.542Z,4.31
2019-02-05T11:03:51.723Z,4.39
2019-02-05T11:06:20.960Z,4.57
2019-02-05T11:08:50.144Z,4.55
2019-02-05T11:11:19.370Z,4.45
2019-02-05T11:13:48.623Z,4.41
2019-02-05T11:16:17.871Z,4.39
2019-02-05T11:18:47.063Z,4.33
2019-02-05T11:21:16.288Z,4.24
2019-02-05T11:23:45.476Z,4.29
2019-02-05T11:26:16.453Z,4.34
2019-02-05T11:28:45.687Z,4.36
2019-02-05T11:31:15.283Z,4.52
2019-02-05T11:33:44.480Z,4.52
2019-02-05T11:36:13.730Z,4.45
2019-02-05T11:38:42.956Z,4.48
2019-02-05T11:41:13.749Z,4.63
2019-02-05T11:43:43.106Z,4.86
2019-02-05T11:46:12.370Z,4.87
2019-02-05T11:48:41.559Z,4.84
2019-02-05T11:51:10.757Z,4.77
2019-02-05T11:53:40.014Z,4.80
2019-02-05T11:56:09.203Z,4.87
2019-02-05T11:58:40.548Z,4.94
2019-02-05T12:01:38.357Z,5.09
2019-02-05T12:03:59.644Z,5.17
2019-02-05T12:06:28.834Z,5.30
2019-02-05T12:08:58.089Z,5.22
2019-02-05T12:11:27.445Z,5.28
2019-02-05T12:13:56.736Z,5.30
2019-02-05T12:16:25.914Z,5.38
2019-02-05T12:18:55.155Z,5.35
2019-02-05T12:21:24.330Z,5.30
2019-02-05T12:23:54.033Z,5.27
2019-02-05T12:26:23.231Z,5.15
2019-02-05T12:28:52.664Z,5.19
2019-02-05T12:31:21.847Z,5.23
2019-02-05T12:33:51.074Z,5.26
2019-02-05T12:36:20.267Z,5.32
2019-02-05T12:38:49.523Z,5.28
2019-02-05T12:41:18.709Z,5.10
2019-02-05T12:46:38.040Z,5.01
2019-02-05T12:49:07.267Z,4.97
2019-02-05T12:51:36.808Z,4.86
2019-02-05T12:54:06.095Z,4.81
2019-02-05T12:56:35.573Z,4.89
2019-02-05T13:02:13.573Z,4.86
2019-02-05T13:04:42.761Z,4.89
2019-02-05T13:07:12.100Z,4.94
2019-02-05T13:09:41.385Z,4.94
2019-02-05T13:12:10.747Z,4.96
2019-02-05T13:14:40.133Z,4.97
2019-02-05T13:17:09.372Z,4.93
2019-02-05T13:19:38.569Z,4.95
2019-02-05T13:22:07.928Z,4.99
2019-02-05T13:24:37.062Z,4.94
2019-02-05T13:27:06.536Z,4.94
2019-02-05T13:29:36.116Z,4.98
2019-02-05T13:32:07.136Z,5.07
2019-02-05T13:34:36.316Z,5.07
2019-02-05T13:37:45.288Z,5.17
2019-02-05T13:40:17.088Z,5.20
2019-02-05T13:42:46.396Z,5.34
2019-02-05T13:45:55.304Z,5.40
2019-02-05T13:48:24.540Z,5.46
2019-02-05T13:50:53.789Z,5.46
2019-02-05T13:53:23.106Z,5.37
2019-02-05T13:55:52.399Z,5.24
2019-02-05T13:58:21.657Z,5.18
2019-02-05T14:03:49.431Z,5.09
2019-02-05T14:06:18.616Z,5.13
2019-02-05T14:08:47.981Z,5.26
2019-02-05T14:11:17.116Z,5.36
2019-02-05T14:13:58.379Z,5.46
2019-02-05T14:16:27.566Z,5.57
2019-02-05T14:18:56.802Z,5.78
2019-02-05T14:21:25.980Z,5.93
2019-02-05T14:23:55.360Z,6.03
2019-02-05T14:26:24.545Z,6.11
2019-02-05T14:31:42.143Z,6.39
2019-02-05T14:34:13.430Z,6.38
2019-02-05T14:36:42.613Z,6.15
2019-02-05T14:39:12.237Z,5.92
2019-02-05T14:41:41.744Z,5.78
2019-02-05T14:44:11.254Z,5.67
2019-02-05T14:46:40.529Z,5.56
2019-02-05T14:49:11.412Z,5.36
2019-02-05T14:51:40.654Z,5.14
2019-02-05T14:54:09.831Z,5.13
2019-02-05T14:56:39.086Z,5.79
2019-02-05T14:59:47.726Z,6.19
2019-02-05T15:02:16.916Z,7.27
2019-02-05T15:04:46.174Z,8.83
2019-02-05T15:07:15.365Z,9.35
2019-02-05T15:09:44.931Z,8.75
2019-02-05T15:12:14.539Z,8.33
2019-02-05T15:17:31.987Z,7.46
2019-02-05T15:20:01.465Z,7.76
2019-02-05T15:22:30.696Z,8.61
2019-02-05T15:25:02.236Z,9.08
2019-02-05T15:27:31.478Z,9.67
2019-02-05T15:30:00.659Z,8.94
2019-02-05T15:32:49.156Z,7.93
2019-02-05T15:35:19.817Z,6.97
2019-02-05T15:37:49.060Z,6.23
2019-02-05T15:40:18.719Z,5.66
2019-02-05T15:42:47.958Z,5.23
2019-02-05T15:45:17.586Z,4.90
2019-02-05T15:47:46.962Z,4.67
2019-02-05T15:50:16.361Z,4.40
2019-02-05T15:52:45.622Z,4.03
2019-02-05T15:55:54.196Z,3.80
2019-02-05T15:58:23.457Z,3.69
2019-02-05T16:00:52.965Z,3.60
2019-02-05T16:03:22.218Z,3.55
2019-02-05T16:05:51.400Z,3.41
2019-02-05T16:08:22.361Z,3.34
2019-02-05T16:10:51.557Z,3.24
2019-02-05T16:13:20.910Z,3.18
2019-02-05T16:15:50.153Z,3.14
2019-02-05T16:18:19.332Z,3.06
2019-02-05T16:20:48.623Z,2.99
2019-02-05T16:23:19.956Z,2.99
2019-02-05T16:25:49.192Z,2.94
2019-02-05T16:28:18.374Z,2.88
2019-02-05T16:30:47.622Z,2.90
2019-02-05T16:33:16.921Z,2.86
2019-02-05T16:35:46.145Z,2.76
2019-02-05T16:38:15.893Z,2.73
2019-02-05T16:40:45.146Z,2.66
2019-02-05T16:43:14.344Z,2.67
2019-02-05T16:45:43.595Z,2.66
2019-02-05T16:48:12.898Z,2.68
2019-02-05T16:50:44.461Z,2.60
2019-02-05T16:53:15.440Z,2.65
2019-02-05T16:55:44.666Z,2.66
2019-02-05T16:58:13.888Z,2.65
2019-02-05T17:00:43.147Z,2.64
2019-02-05T17:03:12.782Z,2.59
2019-02-05T17:05:42.088Z,2.59
2019-02-05T17:08:11.584Z,2.56
2019-02-05T17:10:40.823Z,2.56
2019-02-05T17:13:11.736Z,2.54
2019-02-05T17:15:41.156Z,2.55
2019-02-05T17:18:10.402Z,2.48
2019-02-05T17:20:39.745Z,2.46
2019-02-05T17:23:10.986Z,2.45
2019-02-05T17:25:40.273Z,2.47
2019-02-05T17:28:09.741Z,2.48
2019-02-05T17:30:39.631Z,2.47
2019-02-05T17:33:08.986Z,2.43
2019-02-05T17:35:38.169Z,2.45
2019-02-05T17:38:09.018Z,2.44
2019-02-05T17:43:50.271Z,2.50
2019-02-05T17:46:18.074Z,2.51
2019-02-05T17:48:47.588Z,2.49
2019-02-05T17:51:16.773Z,2.48
2019-02-05T17:53:46.027Z,2.49
2019-02-05T17:56:15.226Z,2.48
2019-02-05T17:58:46.331Z,2.47
2019-02-05T18:01:17.402Z,2.45
2019-02-05T18:03:46.990Z,2.47
2019-02-05T18:06:16.169Z,2.45
2019-02-05T18:08:45.416Z,2.46
2019-02-05T18:11:14.601Z,2.43
2019-02-05T18:13:44.076Z,2.41
2019-02-05T18:16:16.389Z,2.44
2019-02-05T18:18:45.639Z,2.45
2019-02-05T18:21:14.865Z,2.48
2019-02-05T18:23:44.037Z,2.48
2019-02-05T18:26:13.351Z,2.44
2019-02-05T18:28:42.529Z,2.45
2019-02-05T18:31:11.866Z,2.47
2019-02-05T18:33:41.276Z,2.48
2019-02-05T18:36:10.535Z,2.42
2019-02-05T18:38:40.100Z,2.41
2019-02-05T18:41:28.490Z,2.48
2019-02-05T18:43:57.738Z,2.48
2019-02-05T18:46:27.009Z,2.40
2019-02-05T18:49:04.700Z,2.47
2019-02-05T18:51:27.444Z,2.50
2019-02-05T18:53:58.417Z,2.56
2019-02-05T18:56:27.596Z,2.63
2019-02-05T18:58:56.851Z,2.57
2019-02-05T19:01:26.038Z,2.63
2019-02-05T19:03:55.311Z,2.65
2019-02-05T19:06:24.566Z,2.53
2019-02-05T19:08:55.959Z,2.61
2019-02-05T19:11:25.164Z,2.63
2019-02-05T19:13:54.544Z,2.65
2019-02-05T19:16:23.866Z,2.58
2019-02-05T19:18:53.177Z,2.50
2019-02-05T19:21:22.488Z,2.48
2019-02-05T19:27:04.739Z,2.44
2019-02-05T19:29:34.366Z,2.40
2019-02-05T19:32:03.705Z,2.40
2019-02-05T19:34:32.909Z,2.37
2019-02-05T19:39:57.131Z,2.37
2019-02-05T19:42:26.328Z,2.42
2019-02-05T19:47:39.323Z,2.33
2019-02-05T19:50:09.930Z,2.34
2019-02-05T19:52:39.404Z,2.34
2019-02-05T19:55:08.706Z,2.33
2019-02-05T19:57:39.742Z,2.30
2019-02-05T20:00:12.196Z,2.31
2019-02-05T20:02:41.390Z,2.35
2019-02-05T20:08:06.360Z,2.31
2019-02-05T20:10:36.245Z,2.34
2019-02-05T20:13:45.152Z,2.31
2019-02-05T20:16:14.600Z,2.30
2019-02-05T20:18:44.291Z,2.30
2019-02-05T20:21:13.536Z,2.25
2019-02-05T20:23:43.222Z,2.20
2019-02-05T20:26:12.542Z,2.19
2019-02-05T20:28:42.194Z,2.16
2019-02-05T20:31:11.910Z,2.15
2019-02-05T20:33:49.717Z,2.09
2019-02-05T20:36:12.131Z,2.11
2019-02-05T20:38:41.438Z,2.02
2019-02-05T20:41:11.423Z,2.08
2019-02-05T20:43:42.307Z,1.91
2019-02-05T20:46:11.968Z,1.66
2019-02-05T20:48:41.244Z,1.49
2019-02-05T20:51:10.529Z,1.45
2019-02-05T20:53:39.735Z,1.42
2019-02-05T20:56:08.998Z,1.57
2019-02-05T20:58:38.322Z,1.67
2019-02-05T21:01:07.574Z,1.76
2019-02-05T21:03:36.762Z,1.79
2019-02-05T21:06:45.384Z,1.71
2019-02-05T21:09:19.287Z,1.80
2019-02-05T21:11:48.977Z,1.76
2019-02-05T21:14:18.993Z,1.82
2019-02-05T21:16:48.153Z,1.83
2019-02-05T21:19:17.394Z,1.85
2019-02-05T21:21:46.615Z,1.84
2019-02-05T21:24:15.858Z,1.91
2019-02-05T21:26:45.157Z,1.87
2019-02-05T21:29:14.390Z,1.86
2019-02-05T21:31:43.586Z,1.79
2019-02-05T21:34:15.988Z,1.76
2019-02-05T21:36:43.739Z,1.78
2019-02-05T21:40:02.090Z,1.75
2019-02-05T21:42:23.678Z,1.76
2019-02-05T21:44:54.639Z,1.76
2019-02-05T21:47:23.827Z,1.79
2019-02-05T21:49:53.062Z,1.77
2019-02-05T21:52:22.248Z,1.79
2019-02-05T21:54:51.489Z,1.74
2019-02-05T21:57:20.677Z,1.80
2019-02-05T21:59:49.939Z,1.74
2019-02-05T22:02:19.150Z,1.82
2019-02-05T22:04:48.406Z,1.69
2019-02-05T22:07:17.651Z,1.49
2019-02-05T22:09:46.840Z,1.44
2019-02-05T22:12:16.092Z,1.11
2019-02-05T22:14:45.333Z,0.83
2019-02-05T22:17:18.280Z,0.64
2019-02-05T22:19:47.215Z,0.46
2019-02-05T22:22:16.453Z,0.25
2019-02-05T22:24:46.012Z,0.25
2019-02-05T22:27:16.988Z,0.42
2019-02-05T22:29:46.176Z,0.54
2019-02-05T22:32:15.433Z,0.67
2019-02-05T22:34:44.639Z,0.84
2019-02-05T22:37:13.845Z,0.97
2019-02-05T22:39:45.133Z,0.88
2019-02-05T22:42:14.332Z,0.88
2019-02-05T22:44:45.310Z,0.99
2019-02-05T22:47:14.493Z,0.85
2019-02-05T22:49:43.737Z,0.79
2019-02-05T22:52:12.939Z,0.94
2019-02-05T22:54:42.181Z,0.98
2019-02-05T22:57:11.377Z,0.65
2019-02-05T22:59:42.331Z,0.50
2019-02-05T23:02:11.651Z,0.51
2019-02-05T23:05:18.968Z,0.58
2019-02-05T23:07:48.527Z,0.66
2019-02-05T23:10:48.605Z,0.27
2019-02-05T23:13:19.693Z,0.03
2019-02-05T23:15:50.380Z,-0.02
2019-02-05T23:18:19.795Z,-0.16
2019-02-05T23:23:24.236Z,-0.15
2019-02-05T23:25:53.490Z,0.03
2019-02-05T23:28:22.679Z,0.02
2019-02-05T23:30:54.005Z,0.02
2019-02-05T23:33:23.193Z,0.09
2019-02-05T23:36:31.966Z,0.32
2019-02-05T23:39:01.151Z,0.41
2019-02-05T23:41:30.732Z,0.49
2019-02-05T23:44:00.006Z,0.73
2019-02-05T23:46:29.198Z,0.83
2019-02-05T23:48:58.937Z,0.79
2019-02-05T23:51:28.133Z,0.84
2019-02-05T23:53:57.365Z,0.89
2019-02-05T23:56:26.566Z,0.62
2019-02-05T23:58:56.142Z,0.36
